createdAt,value
2022-11-16T00:02:35.000Z,100
2022-11-16T00:07:35.000Z,100
2022-11-16T00:12:35.000Z,100
2022-11-16T00:17:34.000Z,100
2022-11-16T00:22:34.000Z,100
2022-11-16T00:27:35.000Z,100
2022-11-16T00:32:35.000Z,100
2022-11-16T00:37:34.000Z,100
2022-11-16T00:42:34.000Z,100
2022-11-16T00:47:35.000Z,100
2022-11-16T00:52:35.000Z,100
2022-11-16T00:57:34.000Z,100
2022-11-16T01:02:35.000Z,100
2022-11-16T01:07:35.000Z,100
2022-11-16T01:12:34.000Z,100
2022-11-16T01:17:35.000Z,100
2022-11-16T01:22:35.000Z,100
2022-11-16T01:27:35.000Z,100
2022-11-16T01:32:35.000Z,100
2022-11-16T01:37:34.000Z,100
2022-11-16T01:42:34.000Z,100
2022-11-16T01:47:35.000Z,100
2022-11-16T01:52:35.000Z,100
2022-11-16T01:57:34.000Z,100
2022-11-16T02:02:34.000Z,100
2022-11-16T02:07:35.000Z,100
2022-11-16T02:12:35.000Z,100
2022-11-16T02:17:34.000Z,100
2022-11-16T02:22:34.000Z,100
2022-11-16T02:27:35.000Z,100
2022-11-16T02:32:35.000Z,100
2022-11-16T02:37:35.000Z,100
2022-11-16T02:42:35.000Z,100
2022-11-16T02:47:34.000Z,100
2022-11-16T02:52:34.000Z,100
2022-11-16T02:57:34.000Z,100
2022-11-16T03:02:34.000Z,100
2022-11-16T03:07:35.000Z,100
2022-11-16T03:12:34.000Z,100
2022-11-16T03:17:35.000Z,100
2022-11-16T03:22:34.000Z,100
2022-11-16T03:27:34.000Z,100
2022-11-16T03:32:34.000Z,100
2022-11-16T03:37:34.000Z,100
2022-11-16T03:42:35.000Z,100
2022-11-16T03:47:34.000Z,100
2022-11-16T03:52:35.000Z,100
2022-11-16T03:57:34.000Z,100
2022-11-16T04:02:35.000Z,100
2022-11-16T04:07:34.000Z,100
2022-11-16T04:12:35.000Z,100
2022-11-16T04:17:35.000Z,100
2022-11-16T04:22:35.000Z,100
2022-11-16T04:27:34.000Z,100
2022-11-16T04:32:35.000Z,100
2022-11-16T04:37:35.000Z,100
2022-11-16T04:42:35.000Z,100
2022-11-16T04:47:35.000Z,100
2022-11-16T04:52:35.000Z,100
2022-11-16T04:57:34.000Z,100
2022-11-16T05:02:35.000Z,100
2022-11-16T05:07:35.000Z,100
2022-11-16T05:12:34.000Z,100
2022-11-16T05:17:35.000Z,100
2022-11-16T05:22:35.000Z,100
2022-11-16T05:27:35.000Z,100
2022-11-16T05:32:35.000Z,100
2022-11-16T05:37:35.000Z,100
2022-11-16T05:42:34.000Z,100
2022-11-16T05:47:35.000Z,100
2022-11-16T05:52:35.000Z,100
2022-11-16T05:57:34.000Z,100
2022-11-16T06:02:35.000Z,100
2022-11-16T06:07:34.000Z,100
2022-11-16T06:12:35.000Z,100
2022-11-16T06:17:35.000Z,95.44
2022-11-16T06:22:34.000Z,69.39
2022-11-16T06:27:34.000Z,57.33
2022-11-16T06:32:34.000Z,52.24
2022-11-16T06:37:35.000Z,47.98
2022-11-16T06:42:35.000Z,44.22
2022-11-16T06:47:35.000Z,41.59
2022-11-16T06:52:35.000Z,41.45
2022-11-16T06:57:35.000Z,42.34
2022-11-16T07:02:34.000Z,42.34
2022-11-16T07:07:35.000Z,43.03
2022-11-16T07:12:34.000Z,44.71
2022-11-16T07:17:34.000Z,43.14
2022-11-16T07:22:35.000Z,41.94
2022-11-16T07:27:35.000Z,39.58
2022-11-16T07:37:34.000Z,33.85
2022-11-16T07:42:35.000Z,33.14
2022-11-16T07:47:34.000Z,35.55
2022-11-16T07:52:35.000Z,35.66
2022-11-16T07:57:35.000Z,38.06
2022-11-16T08:02:34.000Z,38.74
2022-11-16T08:07:35.000Z,36.94
2022-11-16T08:12:34.000Z,38.17
2022-11-16T08:17:35.000Z,42.03
2022-11-16T08:22:34.000Z,43.87
2022-11-16T08:27:34.000Z,43.87
2022-11-16T08:32:35.000Z,41.51
2022-11-16T08:37:35.000Z,42.17
2022-11-16T08:42:34.000Z,43.1
2022-11-16T08:47:34.000Z,42.4
2022-11-16T08:52:35.000Z,40.47
2022-11-16T08:57:35.000Z,44.78
2022-11-16T09:02:35.000Z,52.69
2022-11-16T09:07:34.000Z,61.17
2022-11-16T09:12:35.000Z,66.86
2022-11-16T09:17:34.000Z,66.16
2022-11-16T09:22:35.000Z,65.65
2022-11-16T09:27:35.000Z,67.91
2022-11-16T09:32:34.000Z,71.06
2022-11-16T09:37:34.000Z,70.75
2022-11-16T09:42:35.000Z,70.75
2022-11-16T09:47:35.000Z,70.98
2022-11-16T09:52:34.000Z,71.09
2022-11-16T10:02:34.000Z,62.39
2022-11-16T10:07:35.000Z,60.15
2022-11-16T10:12:34.000Z,59.65
2022-11-16T10:17:35.000Z,60.44
2022-11-16T10:22:34.000Z,60.44
2022-11-16T10:27:35.000Z,62.7
2022-11-16T10:32:35.000Z,64.85
2022-11-16T10:37:34.000Z,64.02
2022-11-16T10:42:35.000Z,64.33
2022-11-16T10:47:42.000Z,63.87
2022-11-16T10:52:34.000Z,61.91
2022-11-16T10:57:34.000Z,62.64
2022-11-16T11:02:34.000Z,59.85
2022-11-16T11:07:35.000Z,58.01
2022-11-16T11:12:35.000Z,59.3
2022-11-16T11:17:35.000Z,62.28
2022-11-16T11:22:35.000Z,69
2022-11-16T11:27:35.000Z,70.9
2022-11-16T11:32:34.000Z,74.81
2022-11-16T11:37:34.000Z,74.81
2022-11-16T11:42:35.000Z,77.5
2022-11-16T11:48:04.000Z,75.36
2022-11-16T11:52:35.000Z,75.58
2022-11-16T11:57:35.000Z,78.79
2022-11-16T12:02:35.000Z,80.48
2022-11-16T12:07:35.000Z,80.17
2022-11-16T12:12:35.000Z,80.96
2022-11-16T12:17:35.000Z,82.85
2022-11-16T12:22:35.000Z,79.3
2022-11-16T12:27:34.000Z,76.99
2022-11-16T12:32:35.000Z,78.64
2022-11-16T12:37:35.000Z,85.24
2022-11-16T12:42:34.000Z,87.9
2022-11-16T12:47:34.000Z,89.43
2022-11-16T12:57:34.000Z,95.34
2022-11-16T13:02:35.000Z,97.14
2022-11-16T13:07:35.000Z,100
2022-11-16T13:12:35.000Z,100
2022-11-16T13:17:34.000Z,100
2022-11-16T13:22:35.000Z,100
2022-11-16T13:27:35.000Z,100
2022-11-16T13:32:35.000Z,100
2022-11-16T13:37:34.000Z,100
2022-11-16T13:42:34.000Z,100
2022-11-16T13:47:34.000Z,100
2022-11-16T13:52:50.000Z,100
2022-11-16T14:02:35.000Z,100
2022-11-16T14:07:35.000Z,100
2022-11-16T14:12:34.000Z,100
2022-11-16T14:22:35.000Z,100
2022-11-16T14:27:40.000Z,100
2022-11-16T14:32:34.000Z,100
2022-11-16T14:37:34.000Z,100
2022-11-16T14:47:35.000Z,100
2022-11-16T14:52:35.000Z,100
2022-11-16T14:57:34.000Z,100
2022-11-16T15:02:35.000Z,100
2022-11-16T15:07:34.000Z,100
2022-11-16T15:17:43.000Z,100
2022-11-16T15:22:35.000Z,100
2022-11-16T15:27:34.000Z,100
2022-11-16T15:32:34.000Z,100
2022-11-16T15:37:35.000Z,100
2022-11-16T15:42:35.000Z,100
2022-11-16T15:47:34.000Z,100
2022-11-16T15:52:35.000Z,100
2022-11-16T15:57:34.000Z,100
2022-11-16T16:02:35.000Z,100
2022-11-16T16:07:35.000Z,100
2022-11-16T16:12:35.000Z,100
2022-11-16T16:17:35.000Z,100
2022-11-16T16:22:34.000Z,100
2022-11-16T16:27:35.000Z,100
2022-11-16T16:32:35.000Z,100
2022-11-16T16:37:34.000Z,100
2022-11-16T16:42:35.000Z,100
2022-11-16T16:47:35.000Z,100
2022-11-16T16:52:34.000Z,100
2022-11-16T16:57:35.000Z,100
2022-11-16T17:02:35.000Z,100
2022-11-16T17:07:34.000Z,100
2022-11-16T17:12:34.000Z,100
2022-11-16T17:17:35.000Z,100
2022-11-16T17:22:35.000Z,100
2022-11-16T17:27:35.000Z,100
2022-11-16T17:32:35.000Z,100
2022-11-16T17:37:34.000Z,100
2022-11-16T17:42:34.000Z,100
2022-11-16T17:47:35.000Z,100
2022-11-16T17:52:34.000Z,100
2022-11-16T17:57:35.000Z,100
2022-11-16T18:02:35.000Z,100
2022-11-16T18:07:35.000Z,100
2022-11-16T18:12:35.000Z,100
2022-11-16T18:17:35.000Z,100
2022-11-16T18:22:35.000Z,100
2022-11-16T18:27:35.000Z,100
2022-11-16T18:32:35.000Z,100
2022-11-16T18:37:35.000Z,100
2022-11-16T18:42:34.000Z,100
2022-11-16T18:47:35.000Z,100
2022-11-16T18:52:34.000Z,100
2022-11-16T18:57:34.000Z,100
2022-11-16T19:02:34.000Z,100
2022-11-16T19:07:34.000Z,100
2022-11-16T19:12:35.000Z,100
2022-11-16T19:17:34.000Z,100
2022-11-16T19:27:35.000Z,100
2022-11-16T19:32:35.000Z,100
2022-11-16T19:37:34.000Z,100
2022-11-16T19:42:35.000Z,100
2022-11-16T19:47:35.000Z,100
2022-11-16T19:52:35.000Z,100
2022-11-16T19:57:34.000Z,100
2022-11-16T20:02:34.000Z,100
2022-11-16T20:07:35.000Z,100
2022-11-16T20:12:34.000Z,100
2022-11-16T20:17:34.000Z,100
2022-11-16T20:22:35.000Z,100
2022-11-16T20:27:34.000Z,100
2022-11-16T20:32:35.000Z,100
2022-11-16T20:37:34.000Z,100
2022-11-16T20:42:35.000Z,100
2022-11-16T20:47:35.000Z,100
2022-11-16T20:52:34.000Z,100
2022-11-16T20:57:35.000Z,100
2022-11-16T21:02:35.000Z,100
2022-11-16T21:07:34.000Z,100
2022-11-16T21:12:34.000Z,100
2022-11-16T21:17:35.000Z,100
2022-11-16T21:22:42.000Z,100
2022-11-16T21:32:35.000Z,100
2022-11-16T21:37:34.000Z,100
2022-11-16T21:42:35.000Z,100
2022-11-16T21:47:35.000Z,100
2022-11-16T21:57:35.000Z,100
2022-11-16T22:02:34.000Z,100
2022-11-16T22:07:34.000Z,100
2022-11-16T22:12:35.000Z,100
2022-11-16T22:17:34.000Z,100
2022-11-16T22:22:34.000Z,100
2022-11-16T22:27:35.000Z,100
2022-11-16T22:32:35.000Z,100
2022-11-16T22:37:34.000Z,100
2022-11-16T22:47:35.000Z,100
2022-11-16T22:52:35.000Z,100
2022-11-16T22:57:34.000Z,100
2022-11-16T23:02:35.000Z,100
2022-11-16T23:07:35.000Z,100
2022-11-16T23:12:35.000Z,100
2022-11-16T23:17:35.000Z,100
2022-11-16T23:22:34.000Z,100
2022-11-16T23:27:35.000Z,100
2022-11-16T23:32:34.000Z,100
2022-11-16T23:37:35.000Z,100
2022-11-16T23:42:35.000Z,100
2022-11-16T23:47:35.000Z,100
2022-11-16T23:52:34.000Z,100
2022-11-16T23:57:35.000Z,100
